Terminal Aerodrome Forecast
Issued by NWS Cleveland, OH

Home | Current Version | Previous Version | Text Only | Print | Product List | Glossary Off
Versions: 1 2 3 4 5 6 7 8 9 10 11 12 13 14 15 16 17 18 19

666
FTUS41 KCLE 210530
TAFCAK
TAF
KCAK 210530Z 2106/2206 11003KT P6SM FEW250
     FM211700 23008KT P6SM SCT050
     FM220500 22006KT 6SM BR SCT060 BKN200=

USA.gov is the U.S. government's official web portal to all federal, state and local government web resources and services.